sensor_id;sensor_type;location;lat;lon;timestamp;P1;durP1;ratioP1;P2;durP2;ratioP2
39242;SDS011;29823;47.404;8.566;2023-04-03T00:01:09;23.13;;;14.43;;
39242;SDS011;29823;47.404;8.566;2023-04-03T00:03:38;13.50;;;9.73;;
39242;SDS011;29823;47.404;8.566;2023-04-03T00:06:07;14.85;;;9.75;;
39242;SDS011;29823;47.404;8.566;2023-04-03T00:08:37;11.15;;;8.93;;
39242;SDS011;29823;47.404;8.566;2023-04-03T00:11:06;10.15;;;7.80;;
39242;SDS011;29823;47.404;8.566;2023-04-03T00:13:37;10.93;;;7.50;;
39242;SDS011;29823;47.404;8.566;2023-04-03T00:16:06;9.05;;;6.85;;
39242;SDS011;29823;47.404;8.566;2023-04-03T00:18:35;8.82;;;6.75;;
39242;SDS011;29823;47.404;8.566;2023-04-03T00:21:03;7.30;;;5.72;;
39242;SDS011;29823;47.404;8.566;2023-04-03T00:23:32;7.80;;;6.07;;
39242;SDS011;29823;47.404;8.566;2023-04-03T00:26:00;7.30;;;5.45;;
39242;SDS011;29823;47.404;8.566;2023-04-03T00:28:28;6.78;;;5.03;;
39242;SDS011;29823;47.404;8.566;2023-04-03T00:30:58;7.65;;;5.60;;
39242;SDS011;29823;47.404;8.566;2023-04-03T00:33:26;7.38;;;5.50;;
39242;SDS011;29823;47.404;8.566;2023-04-03T00:35:53;5.57;;;4.70;;
39242;SDS011;29823;47.404;8.566;2023-04-03T00:38:21;5.28;;;4.50;;
39242;SDS011;29823;47.404;8.566;2023-04-03T00:40:49;5.60;;;4.57;;
39242;SDS011;29823;47.404;8.566;2023-04-03T00:43:18;7.53;;;5.80;;
39242;SDS011;29823;47.404;8.566;2023-04-03T00:45:48;8.02;;;5.93;;
39242;SDS011;29823;47.404;8.566;2023-04-03T00:48:20;10.10;;;7.75;;
39242;SDS011;29823;47.404;8.566;2023-04-03T00:53:18;7.75;;;5.20;;
39242;SDS011;29823;47.404;8.566;2023-04-03T00:55:49;6.03;;;5.05;;
39242;SDS011;29823;47.404;8.566;2023-04-03T00:58:19;8.20;;;6.25;;
39242;SDS011;29823;47.404;8.566;2023-04-03T01:00:53;12.45;;;6.60;;
39242;SDS011;29823;47.404;8.566;2023-04-03T01:03:26;9.88;;;7.30;;
39242;SDS011;29823;47.404;8.566;2023-04-03T01:05:54;9.32;;;6.95;;
39242;SDS011;29823;47.404;8.566;2023-04-03T01:08:22;8.65;;;6.47;;
39242;SDS011;29823;47.404;8.566;2023-04-03T01:10:50;10.50;;;6.65;;
39242;SDS011;29823;47.404;8.566;2023-04-03T01:13:23;9.65;;;7.03;;
39242;SDS011;29823;47.404;8.566;2023-04-03T01:15:52;8.07;;;5.93;;
39242;SDS011;29823;47.404;8.566;2023-04-03T01:18:20;8.13;;;6.43;;
39242;SDS011;29823;47.404;8.566;2023-04-03T01:20:56;8.45;;;6.32;;
39242;SDS011;29823;47.404;8.566;2023-04-03T01:23:41;8.00;;;5.97;;
39242;SDS011;29823;47.404;8.566;2023-04-03T01:26:20;8.80;;;6.30;;
39242;SDS011;29823;47.404;8.566;2023-04-03T01:28:48;9.77;;;6.00;;
39242;SDS011;29823;47.404;8.566;2023-04-03T01:31:19;7.68;;;5.32;;
39242;SDS011;29823;47.404;8.566;2023-04-03T01:33:54;9.73;;;5.70;;
39242;SDS011;29823;47.404;8.566;2023-04-03T01:36:23;8.30;;;5.70;;
39242;SDS011;29823;47.404;8.566;2023-04-03T01:38:52;7.60;;;5.80;;
39242;SDS011;29823;47.404;8.566;2023-04-03T01:41:21;9.25;;;6.28;;
39242;SDS011;29823;47.404;8.566;2023-04-03T01:43:49;9.02;;;6.50;;
39242;SDS011;29823;47.404;8.566;2023-04-03T01:46:17;10.10;;;6.75;;
39242;SDS011;29823;47.404;8.566;2023-04-03T01:48:46;8.70;;;6.70;;
39242;SDS011;29823;47.404;8.566;2023-04-03T01:51:15;10.00;;;6.95;;
39242;SDS011;29823;47.404;8.566;2023-04-03T01:53:43;11.30;;;7.35;;
39242;SDS011;29823;47.404;8.566;2023-04-03T01:56:11;10.80;;;7.82;;
39242;SDS011;29823;47.404;8.566;2023-04-03T01:58:39;12.13;;;8.23;;
39242;SDS011;29823;47.404;8.566;2023-04-03T02:01:07;13.48;;;8.00;;
39242;SDS011;29823;47.404;8.566;2023-04-03T02:03:35;16.95;;;7.63;;
39242;SDS011;29823;47.404;8.566;2023-04-03T02:06:03;10.15;;;7.57;;
39242;SDS011;29823;47.404;8.566;2023-04-03T02:08:33;11.52;;;8.00;;
39242;SDS011;29823;47.404;8.566;2023-04-03T02:11:00;10.95;;;8.43;;
39242;SDS011;29823;47.404;8.566;2023-04-03T02:13:28;14.13;;;8.32;;
39242;SDS011;29823;47.404;8.566;2023-04-03T02:15:56;12.63;;;8.73;;
39242;SDS011;29823;47.404;8.566;2023-04-03T02:18:25;12.35;;;8.60;;
39242;SDS011;29823;47.404;8.566;2023-04-03T02:20:53;11.63;;;8.40;;
39242;SDS011;29823;47.404;8.566;2023-04-03T02:23:20;11.93;;;8.07;;
39242;SDS011;29823;47.404;8.566;2023-04-03T02:25:50;13.07;;;8.50;;
39242;SDS011;29823;47.404;8.566;2023-04-03T02:28:17;10.07;;;7.43;;
39242;SDS011;29823;47.404;8.566;2023-04-03T02:30:45;12.68;;;7.53;;
39242;SDS011;29823;47.404;8.566;2023-04-03T02:33:13;11.68;;;8.27;;
39242;SDS011;29823;47.404;8.566;2023-04-03T02:35:41;12.48;;;8.30;;
39242;SDS011;29823;47.404;8.566;2023-04-03T02:38:09;13.40;;;8.20;;
39242;SDS011;29823;47.404;8.566;2023-04-03T02:40:37;11.85;;;7.70;;
39242;SDS011;29823;47.404;8.566;2023-04-03T02:43:06;11.63;;;6.63;;
39242;SDS011;29823;47.404;8.566;2023-04-03T02:45:34;9.50;;;6.50;;
39242;SDS011;29823;47.404;8.566;2023-04-03T02:48:03;7.00;;;5.03;;
39242;SDS011;29823;47.404;8.566;2023-04-03T02:50:31;6.85;;;5.28;;
39242;SDS011;29823;47.404;8.566;2023-04-03T02:53:00;7.30;;;5.38;;
39242;SDS011;29823;47.404;8.566;2023-04-03T02:55:28;6.78;;;5.43;;
39242;SDS011;29823;47.404;8.566;2023-04-03T02:57:56;7.15;;;5.13;;
39242;SDS011;29823;47.404;8.566;2023-04-03T03:00:25;6.20;;;4.90;;
39242;SDS011;29823;47.404;8.566;2023-04-03T03:02:53;7.45;;;5.35;;
39242;SDS011;29823;47.404;8.566;2023-04-03T03:05:21;9.30;;;5.60;;
39242;SDS011;29823;47.404;8.566;2023-04-03T03:07:49;6.40;;;5.13;;
39242;SDS011;29823;47.404;8.566;2023-04-03T03:10:17;8.85;;;5.80;;
39242;SDS011;29823;47.404;8.566;2023-04-03T03:12:45;6.05;;;4.70;;
39242;SDS011;29823;47.404;8.566;2023-04-03T03:15:13;6.10;;;5.15;;
39242;SDS011;29823;47.404;8.566;2023-04-03T03:17:43;8.15;;;5.20;;
39242;SDS011;29823;47.404;8.566;2023-04-03T03:20:11;7.03;;;5.60;;
39242;SDS011;29823;47.404;8.566;2023-04-03T03:22:40;7.57;;;5.50;;
39242;SDS011;29823;47.404;8.566;2023-04-03T03:25:08;7.13;;;5.68;;
39242;SDS011;29823;47.404;8.566;2023-04-03T03:27:36;6.53;;;5.55;;
39242;SDS011;29823;47.404;8.566;2023-04-03T03:30:05;7.97;;;5.55;;
39242;SDS011;29823;47.404;8.566;2023-04-03T03:32:34;7.72;;;5.82;;
39242;SDS011;29823;47.404;8.566;2023-04-03T03:35:03;7.40;;;5.82;;
39242;SDS011;29823;47.404;8.566;2023-04-03T03:37:31;9.45;;;6.25;;
39242;SDS011;29823;47.404;8.566;2023-04-03T03:39:59;6.32;;;5.47;;
39242;SDS011;29823;47.404;8.566;2023-04-03T03:42:27;8.15;;;5.88;;
39242;SDS011;29823;47.404;8.566;2023-04-03T03:44:55;9.02;;;5.97;;
39242;SDS011;29823;47.404;8.566;2023-04-03T03:47:23;7.88;;;5.70;;
39242;SDS011;29823;47.404;8.566;2023-04-03T03:49:52;8.68;;;6.47;;
39242;SDS011;29823;47.404;8.566;2023-04-03T03:52:21;7.78;;;5.85;;
39242;SDS011;29823;47.404;8.566;2023-04-03T03:54:49;8.65;;;5.70;;
39242;SDS011;29823;47.404;8.566;2023-04-03T03:57:17;8.00;;;5.75;;
39242;SDS011;29823;47.404;8.566;2023-04-03T03:59:45;7.32;;;6.00;;
39242;SDS011;29823;47.404;8.566;2023-04-03T04:02:13;7.63;;;5.80;;
39242;SDS011;29823;47.404;8.566;2023-04-03T04:04:42;8.23;;;6.05;;
39242;SDS011;29823;47.404;8.566;2023-04-03T04:07:10;8.88;;;6.53;;
39242;SDS011;29823;47.404;8.566;2023-04-03T04:09:40;8.23;;;6.65;;
39242;SDS011;29823;47.404;8.566;2023-04-03T04:12:07;8.77;;;6.65;;
39242;SDS011;29823;47.404;8.566;2023-04-03T04:14:36;8.90;;;6.35;;
39242;SDS011;29823;47.404;8.566;2023-04-03T04:17:04;9.20;;;7.20;;
39242;SDS011;29823;47.404;8.566;2023-04-03T04:19:32;9.07;;;7.18;;
39242;SDS011;29823;47.404;8.566;2023-04-03T04:22:00;8.27;;;6.40;;
39242;SDS011;29823;47.404;8.566;2023-04-03T04:24:28;9.48;;;6.75;;
39242;SDS011;29823;47.404;8.566;2023-04-03T04:26:57;10.18;;;7.00;;
39242;SDS011;29823;47.404;8.566;2023-04-03T04:29:25;8.52;;;6.35;;
39242;SDS011;29823;47.404;8.566;2023-04-03T04:31:53;9.57;;;6.38;;
39242;SDS011;29823;47.404;8.566;2023-04-03T04:34:21;10.77;;;7.32;;
39242;SDS011;29823;47.404;8.566;2023-04-03T04:36:48;8.90;;;6.57;;
39242;SDS011;29823;47.404;8.566;2023-04-03T04:39:17;8.65;;;6.40;;
39242;SDS011;29823;47.404;8.566;2023-04-03T04:41:44;10.10;;;7.25;;
39242;SDS011;29823;47.404;8.566;2023-04-03T04:44:14;8.48;;;6.60;;
39242;SDS011;29823;47.404;8.566;2023-04-03T04:46:42;8.80;;;6.63;;
39242;SDS011;29823;47.404;8.566;2023-04-03T04:49:09;10.25;;;7.00;;
39242;SDS011;29823;47.404;8.566;2023-04-03T04:51:37;12.63;;;7.25;;
39242;SDS011;29823;47.404;8.566;2023-04-03T04:54:17;9.93;;;6.47;;
39242;SDS011;29823;47.404;8.566;2023-04-03T04:56:45;9.52;;;6.80;;
39242;SDS011;29823;47.404;8.566;2023-04-03T04:59:14;10.48;;;6.85;;
39242;SDS011;29823;47.404;8.566;2023-04-03T05:01:44;9.32;;;6.57;;
39242;SDS011;29823;47.404;8.566;2023-04-03T05:04:12;8.95;;;6.38;;
39242;SDS011;29823;47.404;8.566;2023-04-03T05:06:40;11.45;;;7.82;;
39242;SDS011;29823;47.404;8.566;2023-04-03T05:09:08;9.85;;;7.22;;
39242;SDS011;29823;47.404;8.566;2023-04-03T05:11:37;9.80;;;7.18;;
39242;SDS011;29823;47.404;8.566;2023-04-03T05:14:04;8.98;;;6.90;;
39242;SDS011;29823;47.404;8.566;2023-04-03T05:16:34;8.55;;;6.32;;
39242;SDS011;29823;47.404;8.566;2023-04-03T05:19:02;9.00;;;6.07;;
39242;SDS011;29823;47.404;8.566;2023-04-03T05:21:31;9.75;;;6.57;;
39242;SDS011;29823;47.404;8.566;2023-04-03T05:23:59;8.43;;;6.45;;
39242;SDS011;29823;47.404;8.566;2023-04-03T05:26:29;9.30;;;6.50;;
39242;SDS011;29823;47.404;8.566;2023-04-03T05:28:57;8.60;;;6.50;;
39242;SDS011;29823;47.404;8.566;2023-04-03T05:31:25;8.27;;;5.93;;
39242;SDS011;29823;47.404;8.566;2023-04-03T05:33:57;7.63;;;5.65;;
39242;SDS011;29823;47.404;8.566;2023-04-03T05:36:25;8.20;;;4.97;;
39242;SDS011;29823;47.404;8.566;2023-04-03T05:38:53;9.43;;;4.75;;
39242;SDS011;29823;47.404;8.566;2023-04-03T05:41:22;8.23;;;5.10;;
39242;SDS011;29823;47.404;8.566;2023-04-03T05:43:51;6.28;;;4.60;;
39242;SDS011;29823;47.404;8.566;2023-04-03T05:46:19;7.63;;;4.85;;
39242;SDS011;29823;47.404;8.566;2023-04-03T05:48:48;7.55;;;4.53;;
39242;SDS011;29823;47.404;8.566;2023-04-03T05:51:18;6.20;;;4.63;;
39242;SDS011;29823;47.404;8.566;2023-04-03T05:53:49;6.22;;;4.72;;
39242;SDS011;29823;47.404;8.566;2023-04-03T05:56:22;8.50;;;5.03;;
39242;SDS011;29823;47.404;8.566;2023-04-03T05:58:50;6.00;;;4.78;;
39242;SDS011;29823;47.404;8.566;2023-04-03T06:01:18;6.57;;;4.75;;
39242;SDS011;29823;47.404;8.566;2023-04-03T06:03:46;6.47;;;4.55;;
39242;SDS011;29823;47.404;8.566;2023-04-03T06:06:14;7.63;;;5.05;;
39242;SDS011;29823;47.404;8.566;2023-04-03T06:08:43;7.55;;;5.10;;
39242;SDS011;29823;47.404;8.566;2023-04-03T06:11:12;6.40;;;4.43;;
39242;SDS011;29823;47.404;8.566;2023-04-03T06:13:40;6.13;;;4.47;;
39242;SDS011;29823;47.404;8.566;2023-04-03T06:16:08;7.78;;;5.07;;
39242;SDS011;29823;47.404;8.566;2023-04-03T06:18:37;7.97;;;4.50;;
39242;SDS011;29823;47.404;8.566;2023-04-03T06:21:04;8.50;;;5.22;;
39242;SDS011;29823;47.404;8.566;2023-04-03T06:23:33;6.72;;;4.75;;
39242;SDS011;29823;47.404;8.566;2023-04-03T06:26:03;7.07;;;4.43;;
39242;SDS011;29823;47.404;8.566;2023-04-03T06:28:32;6.22;;;4.47;;
39242;SDS011;29823;47.404;8.566;2023-04-03T06:30:59;7.93;;;3.67;;
39242;SDS011;29823;47.404;8.566;2023-04-03T06:33:27;6.50;;;4.30;;
39242;SDS011;29823;47.404;8.566;2023-04-03T06:35:55;7.10;;;3.70;;
39242;SDS011;29823;47.404;8.566;2023-04-03T06:38:25;6.00;;;4.15;;
39242;SDS011;29823;47.404;8.566;2023-04-03T06:40:52;5.70;;;4.10;;
39242;SDS011;29823;47.404;8.566;2023-04-03T06:43:22;7.60;;;3.80;;
39242;SDS011;29823;47.404;8.566;2023-04-03T06:45:50;6.85;;;4.60;;
39242;SDS011;29823;47.404;8.566;2023-04-03T06:48:18;5.22;;;4.35;;
39242;SDS011;29823;47.404;8.566;2023-04-03T06:50:47;6.43;;;3.95;;
39242;SDS011;29823;47.404;8.566;2023-04-03T06:53:15;6.68;;;4.43;;
39242;SDS011;29823;47.404;8.566;2023-04-03T06:55:42;5.00;;;3.67;;
39242;SDS011;29823;47.404;8.566;2023-04-03T06:58:11;8.70;;;4.20;;
39242;SDS011;29823;47.404;8.566;2023-04-03T07:00:41;6.50;;;3.40;;
39242;SDS011;29823;47.404;8.566;2023-04-03T07:03:09;32.88;;;4.25;;
39242;SDS011;29823;47.404;8.566;2023-04-03T07:05:37;4.22;;;3.30;;
39242;SDS011;29823;47.404;8.566;2023-04-03T07:08:06;10.55;;;4.28;;
39242;SDS011;29823;47.404;8.566;2023-04-03T07:10:33;4.80;;;3.70;;
39242;SDS011;29823;47.404;8.566;2023-04-03T07:13:02;6.95;;;3.75;;
39242;SDS011;29823;47.404;8.566;2023-04-03T07:15:30;4.25;;;3.08;;
39242;SDS011;29823;47.404;8.566;2023-04-03T07:17:59;5.82;;;3.35;;
39242;SDS011;29823;47.404;8.566;2023-04-03T07:20:27;6.40;;;3.22;;
39242;SDS011;29823;47.404;8.566;2023-04-03T07:22:55;6.28;;;3.08;;
39242;SDS011;29823;47.404;8.566;2023-04-03T07:25:23;3.95;;;3.13;;
39242;SDS011;29823;47.404;8.566;2023-04-03T07:27:51;8.80;;;3.67;;
39242;SDS011;29823;47.404;8.566;2023-04-03T07:30:20;6.93;;;3.58;;
39242;SDS011;29823;47.404;8.566;2023-04-03T07:32:48;4.90;;;3.22;;
39242;SDS011;29823;47.404;8.566;2023-04-03T07:35:19;3.55;;;3.13;;
39242;SDS011;29823;47.404;8.566;2023-04-03T07:37:47;5.35;;;3.13;;
39242;SDS011;29823;47.404;8.566;2023-04-03T07:40:14;3.83;;;2.92;;
39242;SDS011;29823;47.404;8.566;2023-04-03T07:42:44;7.30;;;3.15;;
39242;SDS011;29823;47.404;8.566;2023-04-03T07:45:12;3.67;;;2.70;;
39242;SDS011;29823;47.404;8.566;2023-04-03T07:47:41;3.95;;;2.67;;
39242;SDS011;29823;47.404;8.566;2023-04-03T07:50:09;5.82;;;3.25;;
39242;SDS011;29823;47.404;8.566;2023-04-03T07:52:38;5.93;;;2.92;;
39242;SDS011;29823;47.404;8.566;2023-04-03T07:55:07;3.78;;;3.20;;
39242;SDS011;29823;47.404;8.566;2023-04-03T07:57:35;5.32;;;3.10;;
39242;SDS011;29823;47.404;8.566;2023-04-03T08:00:04;3.20;;;2.60;;
39242;SDS011;29823;47.404;8.566;2023-04-03T08:02:33;5.85;;;3.25;;
39242;SDS011;29823;47.404;8.566;2023-04-03T08:05:01;7.18;;;3.10;;
39242;SDS011;29823;47.404;8.566;2023-04-03T08:07:28;4.95;;;2.90;;
39242;SDS011;29823;47.404;8.566;2023-04-03T08:09:58;4.38;;;2.55;;
39242;SDS011;29823;47.404;8.566;2023-04-03T08:12:25;7.30;;;3.28;;
39242;SDS011;29823;47.404;8.566;2023-04-03T08:14:54;5.22;;;3.03;;
39242;SDS011;29823;47.404;8.566;2023-04-03T08:17:22;6.45;;;3.90;;
39242;SDS011;29823;47.404;8.566;2023-04-03T08:19:50;5.28;;;3.35;;
39242;SDS011;29823;47.404;8.566;2023-04-03T08:22:18;4.35;;;3.13;;
39242;SDS011;29823;47.404;8.566;2023-04-03T08:24:46;7.15;;;3.17;;
39242;SDS011;29823;47.404;8.566;2023-04-03T08:27:26;4.53;;;2.97;;
39242;SDS011;29823;47.404;8.566;2023-04-03T08:29:55;6.45;;;3.50;;
39242;SDS011;29823;47.404;8.566;2023-04-03T08:32:23;4.55;;;3.08;;
39242;SDS011;29823;47.404;8.566;2023-04-03T08:34:52;5.80;;;2.90;;
39242;SDS011;29823;47.404;8.566;2023-04-03T08:37:20;5.53;;;3.03;;
39242;SDS011;29823;47.404;8.566;2023-04-03T08:39:47;7.00;;;3.03;;
39242;SDS011;29823;47.404;8.566;2023-04-03T08:42:18;5.40;;;3.13;;
39242;SDS011;29823;47.404;8.566;2023-04-03T08:45:04;7.20;;;3.10;;
39242;SDS011;29823;47.404;8.566;2023-04-03T08:47:38;6.82;;;3.70;;
39242;SDS011;29823;47.404;8.566;2023-04-03T08:50:11;5.47;;;2.80;;
39242;SDS011;29823;47.404;8.566;2023-04-03T08:52:42;4.63;;;2.85;;
39242;SDS011;29823;47.404;8.566;2023-04-03T08:55:17;8.15;;;3.25;;
39242;SDS011;29823;47.404;8.566;2023-04-03T08:57:53;3.72;;;3.00;;
39242;SDS011;29823;47.404;8.566;2023-04-03T09:00:30;7.30;;;3.53;;
39242;SDS011;29823;47.404;8.566;2023-04-03T09:03:13;5.85;;;3.13;;
39242;SDS011;29823;47.404;8.566;2023-04-03T09:05:43;3.35;;;2.72;;
39242;SDS011;29823;47.404;8.566;2023-04-03T09:08:18;12.52;;;3.95;;
39242;SDS011;29823;47.404;8.566;2023-04-03T09:10:51;6.25;;;3.03;;
39242;SDS011;29823;47.404;8.566;2023-04-03T09:13:26;9.05;;;3.75;;
39242;SDS011;29823;47.404;8.566;2023-04-03T09:16:02;8.45;;;3.08;;
39242;SDS011;29823;47.404;8.566;2023-04-03T09:18:41;5.10;;;2.92;;
39242;SDS011;29823;47.404;8.566;2023-04-03T09:21:15;7.05;;;3.13;;
39242;SDS011;29823;47.404;8.566;2023-04-03T09:23:48;6.90;;;3.10;;
39242;SDS011;29823;47.404;8.566;2023-04-03T09:26:19;3.25;;;2.83;;
39242;SDS011;29823;47.404;8.566;2023-04-03T09:28:52;3.95;;;2.92;;
39242;SDS011;29823;47.404;8.566;2023-04-03T09:31:31;5.60;;;3.33;;
39242;SDS011;29823;47.404;8.566;2023-04-03T09:34:07;6.68;;;3.45;;
39242;SDS011;29823;47.404;8.566;2023-04-03T09:36:42;5.00;;;2.95;;
39242;SDS011;29823;47.404;8.566;2023-04-03T09:39:12;9.85;;;3.95;;
39242;SDS011;29823;47.404;8.566;2023-04-03T09:41:42;5.55;;;3.33;;
39242;SDS011;29823;47.404;8.566;2023-04-03T09:44:24;7.63;;;3.92;;
39242;SDS011;29823;47.404;8.566;2023-04-03T09:46:55;5.38;;;3.38;;
39242;SDS011;29823;47.404;8.566;2023-04-03T09:49:23;4.95;;;3.10;;
39242;SDS011;29823;47.404;8.566;2023-04-03T09:51:51;6.30;;;3.17;;
39242;SDS011;29823;47.404;8.566;2023-04-03T09:54:24;6.38;;;3.53;;
39242;SDS011;29823;47.404;8.566;2023-04-03T09:56:57;4.43;;;3.25;;
39242;SDS011;29823;47.404;8.566;2023-04-03T09:59:31;5.68;;;3.10;;
39242;SDS011;29823;47.404;8.566;2023-04-03T10:02:02;8.63;;;4.00;;
39242;SDS011;29823;47.404;8.566;2023-04-03T10:04:37;5.13;;;3.20;;
39242;SDS011;29823;47.404;8.566;2023-04-03T10:09:57;6.93;;;3.15;;
39242;SDS011;29823;47.404;8.566;2023-04-03T10:12:26;5.28;;;3.00;;
39242;SDS011;29823;47.404;8.566;2023-04-03T10:14:54;7.32;;;3.75;;
39242;SDS011;29823;47.404;8.566;2023-04-03T10:17:27;6.07;;;3.22;;
39242;SDS011;29823;47.404;8.566;2023-04-03T10:20:08;5.47;;;3.28;;
39242;SDS011;29823;47.404;8.566;2023-04-03T10:22:52;4.82;;;3.15;;
39242;SDS011;29823;47.404;8.566;2023-04-03T10:25:30;5.10;;;2.97;;
39242;SDS011;29823;47.404;8.566;2023-04-03T10:28:03;3.90;;;3.00;;
39242;SDS011;29823;47.404;8.566;2023-04-03T10:30:38;3.97;;;2.78;;
39242;SDS011;29823;47.404;8.566;2023-04-03T10:33:23;3.50;;;2.75;;
39242;SDS011;29823;47.404;8.566;2023-04-03T10:36:02;4.03;;;2.90;;
39242;SDS011;29823;47.404;8.566;2023-04-03T10:38:40;4.57;;;3.05;;
39242;SDS011;29823;47.404;8.566;2023-04-03T10:41:16;4.70;;;3.47;;
39242;SDS011;29823;47.404;8.566;2023-04-03T10:43:50;4.80;;;2.75;;
39242;SDS011;29823;47.404;8.566;2023-04-03T10:46:27;3.53;;;3.00;;
39242;SDS011;29823;47.404;8.566;2023-04-03T10:49:04;4.60;;;3.05;;
39242;SDS011;29823;47.404;8.566;2023-04-03T10:51:42;5.00;;;2.70;;
39242;SDS011;29823;47.404;8.566;2023-04-03T10:54:12;5.50;;;2.95;;
39242;SDS011;29823;47.404;8.566;2023-04-03T10:56:50;5.80;;;2.70;;
39242;SDS011;29823;47.404;8.566;2023-04-03T10:59:38;4.55;;;3.00;;
39242;SDS011;29823;47.404;8.566;2023-04-03T11:02:14;6.13;;;2.97;;
39242;SDS011;29823;47.404;8.566;2023-04-03T11:04:48;13.38;;;7.55;;
39242;SDS011;29823;47.404;8.566;2023-04-03T11:07:21;9.95;;;3.53;;
39242;SDS011;29823;47.404;8.566;2023-04-03T11:09:52;8.15;;;2.72;;
39242;SDS011;29823;47.404;8.566;2023-04-03T11:12:24;5.40;;;3.40;;
39242;SDS011;29823;47.404;8.566;2023-04-03T11:14:55;4.75;;;3.28;;
39242;SDS011;29823;47.404;8.566;2023-04-03T11:17:27;5.70;;;3.55;;
39242;SDS011;29823;47.404;8.566;2023-04-03T11:20:02;6.78;;;3.47;;
39242;SDS011;29823;47.404;8.566;2023-04-03T11:22:35;5.50;;;3.20;;
39242;SDS011;29823;47.404;8.566;2023-04-03T11:25:14;4.15;;;3.47;;
39242;SDS011;29823;47.404;8.566;2023-04-03T11:27:49;5.38;;;3.30;;
39242;SDS011;29823;47.404;8.566;2023-04-03T11:30:22;5.60;;;3.60;;
39242;SDS011;29823;47.404;8.566;2023-04-03T11:35:53;4.88;;;3.47;;
39242;SDS011;29823;47.404;8.566;2023-04-03T11:38:26;5.40;;;3.90;;
39242;SDS011;29823;47.404;8.566;2023-04-03T11:40:57;5.22;;;3.03;;
39242;SDS011;29823;47.404;8.566;2023-04-03T11:43:27;5.70;;;3.30;;
39242;SDS011;29823;47.404;8.566;2023-04-03T11:45:58;6.43;;;3.75;;
39242;SDS011;29823;47.404;8.566;2023-04-03T11:48:44;3.90;;;3.05;;
39242;SDS011;29823;47.404;8.566;2023-04-03T12:03:29;3.35;;;2.72;;
39242;SDS011;29823;47.404;8.566;2023-04-03T12:09:25;4.15;;;3.15;;
39242;SDS011;29823;47.404;8.566;2023-04-03T12:12:23;4.22;;;3.10;;
39242;SDS011;29823;47.404;8.566;2023-04-03T12:14:55;5.43;;;3.40;;
39242;SDS011;29823;47.404;8.566;2023-04-03T12:17:38;5.47;;;3.65;;
39242;SDS011;29823;47.404;8.566;2023-04-03T12:23:21;7.40;;;3.25;;
39242;SDS011;29823;47.404;8.566;2023-04-03T12:25:51;4.90;;;3.22;;
39242;SDS011;29823;47.404;8.566;2023-04-03T12:28:27;5.72;;;3.75;;
39242;SDS011;29823;47.404;8.566;2023-04-03T12:30:56;8.00;;;3.60;;
39242;SDS011;29823;47.404;8.566;2023-04-03T12:33:28;4.90;;;3.55;;
39242;SDS011;29823;47.404;8.566;2023-04-03T12:36:07;5.20;;;3.28;;
39242;SDS011;29823;47.404;8.566;2023-04-03T12:38:55;6.43;;;3.85;;
39242;SDS011;29823;47.404;8.566;2023-04-03T12:41:36;4.97;;;3.30;;
39242;SDS011;29823;47.404;8.566;2023-04-03T12:44:13;5.78;;;3.03;;
39242;SDS011;29823;47.404;8.566;2023-04-03T12:46:53;4.82;;;3.47;;
39242;SDS011;29823;47.404;8.566;2023-04-03T12:49:29;6.82;;;3.30;;
39242;SDS011;29823;47.404;8.566;2023-04-03T12:52:06;4.40;;;3.03;;
39242;SDS011;29823;47.404;8.566;2023-04-03T12:54:47;5.18;;;3.75;;
39242;SDS011;29823;47.404;8.566;2023-04-03T12:57:17;5.85;;;3.75;;
39242;SDS011;29823;47.404;8.566;2023-04-03T12:59:46;5.22;;;2.92;;
39242;SDS011;29823;47.404;8.566;2023-04-03T13:02:19;4.05;;;2.63;;
39242;SDS011;29823;47.404;8.566;2023-04-03T13:04:51;4.50;;;2.75;;
39242;SDS011;29823;47.404;8.566;2023-04-03T13:07:21;4.30;;;2.90;;
39242;SDS011;29823;47.404;8.566;2023-04-03T13:09:56;5.20;;;3.50;;
39242;SDS011;29823;47.404;8.566;2023-04-03T13:12:28;2.75;;;2.40;;
39242;SDS011;29823;47.404;8.566;2023-04-03T13:14:58;7.68;;;3.10;;
39242;SDS011;29823;47.404;8.566;2023-04-03T13:17:27;11.52;;;3.53;;
39242;SDS011;29823;47.404;8.566;2023-04-03T13:19:55;5.85;;;3.30;;
39242;SDS011;29823;47.404;8.566;2023-04-03T13:22:38;4.72;;;3.10;;
39242;SDS011;29823;47.404;8.566;2023-04-03T13:25:13;6.03;;;3.10;;
39242;SDS011;29823;47.404;8.566;2023-04-03T13:27:42;6.57;;;3.20;;
39242;SDS011;29823;47.404;8.566;2023-04-03T13:30:24;5.70;;;3.08;;
39242;SDS011;29823;47.404;8.566;2023-04-03T13:32:58;5.55;;;2.65;;
39242;SDS011;29823;47.404;8.566;2023-04-03T13:35:32;10.68;;;3.00;;
39242;SDS011;29823;47.404;8.566;2023-04-03T13:38:03;4.30;;;2.85;;
39242;SDS011;29823;47.404;8.566;2023-04-03T13:40:42;5.30;;;3.00;;
39242;SDS011;29823;47.404;8.566;2023-04-03T13:43:17;4.67;;;2.73;;
39242;SDS011;29823;47.404;8.566;2023-04-03T13:45:53;7.03;;;3.58;;
39242;SDS011;29823;47.404;8.566;2023-04-03T13:48:24;8.50;;;3.50;;
39242;SDS011;29823;47.404;8.566;2023-04-03T13:50:57;3.78;;;2.97;;
39242;SDS011;29823;47.404;8.566;2023-04-03T13:53:28;4.53;;;2.60;;
39242;SDS011;29823;47.404;8.566;2023-04-03T13:56:00;8.10;;;3.53;;
39242;SDS011;29823;47.404;8.566;2023-04-03T13:58:33;4.78;;;2.92;;
39242;SDS011;29823;47.404;8.566;2023-04-03T14:01:07;5.28;;;3.10;;
39242;SDS011;29823;47.404;8.566;2023-04-03T14:03:40;4.65;;;3.05;;
39242;SDS011;29823;47.404;8.566;2023-04-03T14:06:11;5.45;;;3.35;;
39242;SDS011;29823;47.404;8.566;2023-04-03T14:08:41;5.88;;;2.92;;
39242;SDS011;29823;47.404;8.566;2023-04-03T14:11:13;7.47;;;3.90;;
39242;SDS011;29823;47.404;8.566;2023-04-03T14:13:42;3.47;;;2.30;;
39242;SDS011;29823;47.404;8.566;2023-04-03T14:16:14;3.65;;;2.70;;
39242;SDS011;29823;47.404;8.566;2023-04-03T14:18:45;3.70;;;2.53;;
39242;SDS011;29823;47.404;8.566;2023-04-03T14:21:15;4.13;;;2.58;;
39242;SDS011;29823;47.404;8.566;2023-04-03T14:23:44;4.63;;;2.90;;
39242;SDS011;29823;47.404;8.566;2023-04-03T14:26:14;3.85;;;2.60;;
39242;SDS011;29823;47.404;8.566;2023-04-03T14:28:44;5.68;;;3.00;;
39242;SDS011;29823;47.404;8.566;2023-04-03T14:31:14;4.50;;;2.72;;
39242;SDS011;29823;47.404;8.566;2023-04-03T14:33:44;6.20;;;3.05;;
39242;SDS011;29823;47.404;8.566;2023-04-03T14:36:13;5.30;;;2.90;;
39242;SDS011;29823;47.404;8.566;2023-04-03T14:38:41;5.45;;;2.85;;
39242;SDS011;29823;47.404;8.566;2023-04-03T14:41:10;6.50;;;2.83;;
39242;SDS011;29823;47.404;8.566;2023-04-03T14:43:44;4.22;;;2.90;;
39242;SDS011;29823;47.404;8.566;2023-04-03T14:46:13;5.68;;;2.90;;
39242;SDS011;29823;47.404;8.566;2023-04-03T14:48:43;6.15;;;2.55;;
39242;SDS011;29823;47.404;8.566;2023-04-03T14:51:12;8.50;;;2.88;;
39242;SDS011;29823;47.404;8.566;2023-04-03T14:53:42;4.13;;;2.63;;
39242;SDS011;29823;47.404;8.566;2023-04-03T14:56:11;4.15;;;2.67;;
39242;SDS011;29823;47.404;8.566;2023-04-03T14:58:40;3.97;;;2.60;;
39242;SDS011;29823;47.404;8.566;2023-04-03T15:01:11;4.35;;;2.95;;
39242;SDS011;29823;47.404;8.566;2023-04-03T15:03:40;3.53;;;2.38;;
39242;SDS011;29823;47.404;8.566;2023-04-03T15:06:08;3.75;;;2.58;;
39242;SDS011;29823;47.404;8.566;2023-04-03T15:08:37;4.22;;;2.67;;
39242;SDS011;29823;47.404;8.566;2023-04-03T15:11:07;4.38;;;2.40;;
39242;SDS011;29823;47.404;8.566;2023-04-03T15:13:35;3.88;;;2.55;;
39242;SDS011;29823;47.404;8.566;2023-04-03T15:16:03;8.90;;;2.85;;
39242;SDS011;29823;47.404;8.566;2023-04-03T15:18:35;6.68;;;2.72;;
39242;SDS011;29823;47.404;8.566;2023-04-03T15:21:05;3.95;;;2.70;;
39242;SDS011;29823;47.404;8.566;2023-04-03T15:23:33;3.45;;;2.40;;
39242;SDS011;29823;47.404;8.566;2023-04-03T15:26:01;2.90;;;2.20;;
39242;SDS011;29823;47.404;8.566;2023-04-03T15:28:30;3.55;;;2.45;;
39242;SDS011;29823;47.404;8.566;2023-04-03T15:31:01;3.88;;;2.38;;
39242;SDS011;29823;47.404;8.566;2023-04-03T15:33:30;3.88;;;2.38;;